sensor_id;sensor_type;location;lat;lon;timestamp;pressure;altitude;pressure_sealevel;temperature;humidity
64298;BME280;50639;53.270;7.956;2023-01-27T00:00:46;106676.91;;;5.45;100.00
64298;BME280;50639;53.270;7.956;2023-01-27T00:03:12;106435.97;;;5.37;100.00
64298;BME280;50639;53.270;7.956;2023-01-27T00:05:38;106669.84;;;5.42;100.00
64298;BME280;50639;53.270;7.956;2023-01-27T00:08:03;106675.13;;;5.44;100.00
64298;BME280;50639;53.270;7.956;2023-01-27T00:10:29;106878.63;;;5.56;100.00
64298;BME280;50639;53.270;7.956;2023-01-27T00:12:54;106872.38;;;5.57;100.00
64298;BME280;50639;53.270;7.956;2023-01-27T00:15:39;106506.06;;;5.42;100.00
64298;BME280;50639;53.270;7.956;2023-01-27T00:18:04;106493.75;;;5.38;100.00
64298;BME280;50639;53.270;7.956;2023-01-27T00:20:30;106469.91;;;5.33;100.00
64298;BME280;50639;53.270;7.956;2023-01-27T00:23:19;106541.78;;;5.39;100.00
64298;BME280;50639;53.270;7.956;2023-01-27T00:26:07;106627.94;;;5.44;100.00
64298;BME280;50639;53.270;7.956;2023-01-27T00:28:33;106881.09;;;5.62;100.00
64298;BME280;50639;53.270;7.956;2023-01-27T00:30:59;106490.84;;;5.45;100.00
64298;BME280;50639;53.270;7.956;2023-01-27T00:33:25;106701.56;;;5.53;100.00
64298;BME280;50639;53.270;7.956;2023-01-27T00:35:56;106776.16;;;5.59;100.00
64298;BME280;50639;53.270;7.956;2023-01-27T00:38:22;106583.22;;;5.51;100.00
64298;BME280;50639;53.270;7.956;2023-01-27T00:40:48;106815.34;;;5.58;100.00
64298;BME280;50639;53.270;7.956;2023-01-27T00:43:33;106750.47;;;5.55;100.00
64298;BME280;50639;53.270;7.956;2023-01-27T00:45:59;106780.75;;;5.54;100.00
64298;BME280;50639;53.270;7.956;2023-01-27T00:48:24;106758.63;;;5.50;100.00
64298;BME280;50639;53.270;7.956;2023-01-27T00:50:50;106883.34;;;5.48;100.00
64298;BME280;50639;53.270;7.956;2023-01-27T00:53:15;107165.22;;;5.63;100.00
64298;BME280;50639;53.270;7.956;2023-01-27T00:55:41;106987.47;;;5.50;100.00
64298;BME280;50639;53.270;7.956;2023-01-27T00:58:06;107091.53;;;5.54;100.00
64298;BME280;50639;53.270;7.956;2023-01-27T01:00:31;107041.94;;;5.44;100.00
64298;BME280;50639;53.270;7.956;2023-01-27T01:02:57;107099.81;;;5.44;100.00
64298;BME280;50639;53.270;7.956;2023-01-27T01:05:22;107344.59;;;5.48;100.00
64298;BME280;50639;53.270;7.956;2023-01-27T01:07:47;107138.31;;;5.37;100.00
64298;BME280;50639;53.270;7.956;2023-01-27T01:10:13;107342.00;;;5.45;100.00
64298;BME280;50639;53.270;7.956;2023-01-27T01:12:39;107317.06;;;5.44;100.00
64298;BME280;50639;53.270;7.956;2023-01-27T01:15:04;107171.34;;;5.33;100.00
64298;BME280;50639;53.270;7.956;2023-01-27T01:17:30;107535.19;;;5.47;100.00
64298;BME280;50639;53.270;7.956;2023-01-27T01:19:56;107341.22;;;5.40;100.00
64298;BME280;50639;53.270;7.956;2023-01-27T01:22:21;107482.66;;;5.46;100.00
64298;BME280;50639;53.270;7.956;2023-01-27T01:24:47;107470.28;;;5.42;100.00
64298;BME280;50639;53.270;7.956;2023-01-27T01:27:12;107414.19;;;5.42;100.00
64298;BME280;50639;53.270;7.956;2023-01-27T01:29:38;107321.72;;;5.36;100.00
64298;BME280;50639;53.270;7.956;2023-01-27T01:32:03;107573.44;;;5.49;100.00
64298;BME280;50639;53.270;7.956;2023-01-27T01:34:30;107858.22;;;5.62;100.00
64298;BME280;50639;53.270;7.956;2023-01-27T01:36:55;107750.44;;;5.60;100.00
64298;BME280;50639;53.270;7.956;2023-01-27T01:39:20;107778.06;;;5.60;100.00
64298;BME280;50639;53.270;7.956;2023-01-27T01:41:46;107704.16;;;5.58;100.00
64298;BME280;50639;53.270;7.956;2023-01-27T01:44:41;107889.28;;;5.69;100.00
64298;BME280;50639;53.270;7.956;2023-01-27T01:47:14;107971.22;;;5.70;100.00
64298;BME280;50639;53.270;7.956;2023-01-27T01:49:40;108056.72;;;5.74;100.00
64298;BME280;50639;53.270;7.956;2023-01-27T01:52:12;107893.81;;;5.65;100.00
64298;BME280;50639;53.270;7.956;2023-01-27T01:54:49;107709.59;;;5.55;100.00
64298;BME280;50639;53.270;7.956;2023-01-27T01:57:21;107812.22;;;5.43;100.00
64298;BME280;50639;53.270;7.956;2023-01-27T01:59:54;108106.91;;;5.51;100.00
64298;BME280;50639;53.270;7.956;2023-01-27T02:02:22;108026.00;;;5.39;100.00
64298;BME280;50639;53.270;7.956;2023-01-27T02:05:42;108306.50;;;5.43;100.00
64298;BME280;50639;53.270;7.956;2023-01-27T02:08:06;108177.41;;;5.34;100.00
64298;BME280;50639;53.270;7.956;2023-01-27T02:10:33;108084.03;;;5.25;100.00
64298;BME280;50639;53.270;7.956;2023-01-27T02:12:59;108339.53;;;5.30;100.00
64298;BME280;50639;53.270;7.956;2023-01-27T02:15:25;108539.88;;;5.39;100.00
64298;BME280;50639;53.270;7.956;2023-01-27T02:17:51;108409.84;;;5.34;100.00
64298;BME280;50639;53.270;7.956;2023-01-27T02:28:13;108474.03;;;5.25;100.00
64298;BME280;50639;53.270;7.956;2023-01-27T02:30:38;108496.28;;;5.22;100.00
64298;BME280;50639;53.270;7.956;2023-01-27T02:33:11;108677.94;;;5.28;100.00
64298;BME280;50639;53.270;7.956;2023-01-27T02:35:41;108521.22;;;5.23;100.00
64298;BME280;50639;53.270;7.956;2023-01-27T02:38:10;108845.34;;;5.22;100.00
64298;BME280;50639;53.270;7.956;2023-01-27T02:40:38;108668.16;;;5.17;100.00
64298;BME280;50639;53.270;7.956;2023-01-27T02:43:04;108767.88;;;5.22;100.00
64298;BME280;50639;53.270;7.956;2023-01-27T02:45:30;108447.38;;;5.09;100.00
64298;BME280;50639;53.270;7.956;2023-01-27T02:47:56;108521.25;;;5.12;100.00
64298;BME280;50639;53.270;7.956;2023-01-27T02:50:22;108451.81;;;5.07;100.00
64298;BME280;50639;53.270;7.956;2023-01-27T02:52:47;108549.75;;;5.12;100.00
64298;BME280;50639;53.270;7.956;2023-01-27T02:55:14;108479.44;;;5.06;100.00
64298;BME280;50639;53.270;7.956;2023-01-27T02:57:40;108693.09;;;5.19;100.00
64298;BME280;50639;53.270;7.956;2023-01-27T03:00:22;108561.31;;;5.14;100.00
64298;BME280;50639;53.270;7.956;2023-01-27T03:02:47;108757.19;;;5.25;100.00
64298;BME280;50639;53.270;7.956;2023-01-27T03:05:13;108917.50;;;5.34;100.00
64298;BME280;50639;53.270;7.956;2023-01-27T03:07:40;108710.00;;;5.28;100.00
64298;BME280;50639;53.270;7.956;2023-01-27T03:10:06;108253.34;;;5.05;100.00
64298;BME280;50639;53.270;7.956;2023-01-27T03:12:32;108163.50;;;5.00;100.00
64298;BME280;50639;53.270;7.956;2023-01-27T03:14:58;108384.16;;;5.07;100.00
64298;BME280;50639;53.270;7.956;2023-01-27T03:17:42;108297.84;;;5.03;100.00
64298;BME280;50639;53.270;7.956;2023-01-27T03:20:26;108099.47;;;4.91;100.00
64298;BME280;50639;53.270;7.956;2023-01-27T03:22:52;108181.31;;;4.98;100.00
64298;BME280;50639;53.270;7.956;2023-01-27T03:25:20;107784.66;;;4.79;100.00
64298;BME280;50639;53.270;7.956;2023-01-27T03:27:46;107680.75;;;4.68;100.00
64298;BME280;50639;53.270;7.956;2023-01-27T03:30:21;107902.97;;;4.79;100.00
64298;BME280;50639;53.270;7.956;2023-01-27T03:32:56;107706.47;;;4.71;100.00
64298;BME280;50639;53.270;7.956;2023-01-27T03:35:51;107695.81;;;4.72;100.00
64298;BME280;50639;53.270;7.956;2023-01-27T03:38:42;107454.91;;;4.64;100.00
64298;BME280;50639;53.270;7.956;2023-01-27T03:41:26;107414.06;;;4.62;100.00
64298;BME280;50639;53.270;7.956;2023-01-27T03:44:10;107407.75;;;4.66;100.00
64298;BME280;50639;53.270;7.956;2023-01-27T03:46:54;107291.28;;;4.64;100.00
64298;BME280;50639;53.270;7.956;2023-01-27T03:49:20;107469.84;;;4.74;100.00
64298;BME280;50639;53.270;7.956;2023-01-27T03:51:45;107522.16;;;4.84;100.00
64298;BME280;50639;53.270;7.956;2023-01-27T03:54:10;107083.09;;;4.68;100.00
64298;BME280;50639;53.270;7.956;2023-01-27T03:56:36;106722.66;;;4.48;100.00
64298;BME280;50639;53.270;7.956;2023-01-27T03:59:01;106550.53;;;4.38;100.00
64298;BME280;50639;53.270;7.956;2023-01-27T04:01:27;106346.47;;;4.28;100.00
64298;BME280;50639;53.270;7.956;2023-01-27T04:03:52;106221.41;;;4.23;100.00
64298;BME280;50639;53.270;7.956;2023-01-27T04:06:39;106112.28;;;4.19;100.00
64298;BME280;50639;53.270;7.956;2023-01-27T04:11:52;106149.06;;;4.33;100.00
64298;BME280;50639;53.270;7.956;2023-01-27T04:14:30;106054.81;;;4.35;100.00
64298;BME280;50639;53.270;7.956;2023-01-27T04:17:01;106064.41;;;4.39;100.00
64298;BME280;50639;53.270;7.956;2023-01-27T04:19:27;106163.72;;;4.44;100.00
64298;BME280;50639;53.270;7.956;2023-01-27T04:21:53;106198.88;;;4.55;100.00
64298;BME280;50639;53.270;7.956;2023-01-27T04:24:19;106166.78;;;4.58;100.00
64298;BME280;50639;53.270;7.956;2023-01-27T04:26:53;105837.69;;;4.42;100.00
64298;BME280;50639;53.270;7.956;2023-01-27T04:29:21;105844.03;;;4.40;100.00
64298;BME280;50639;53.270;7.956;2023-01-27T04:31:47;105661.59;;;4.27;100.00
64298;BME280;50639;53.270;7.956;2023-01-27T04:34:13;105823.16;;;4.29;100.00
64298;BME280;50639;53.270;7.956;2023-01-27T04:36:39;105613.19;;;4.17;100.00
64298;BME280;50639;53.270;7.956;2023-01-27T04:39:05;105786.66;;;4.31;100.00
64298;BME280;50639;53.270;7.956;2023-01-27T04:41:32;105636.81;;;4.24;100.00
64298;BME280;50639;53.270;7.956;2023-01-27T04:43:57;105701.38;;;4.31;100.00
64298;BME280;50639;53.270;7.956;2023-01-27T04:46:23;105937.00;;;4.47;100.00
64298;BME280;50639;53.270;7.956;2023-01-27T04:48:48;105573.66;;;4.27;100.00
64298;BME280;50639;53.270;7.956;2023-01-27T04:51:14;105494.19;;;4.16;100.00
64298;BME280;50639;53.270;7.956;2023-01-27T04:53:39;105665.31;;;4.22;100.00
64298;BME280;50639;53.270;7.956;2023-01-27T04:56:10;105766.94;;;4.35;100.00
64298;BME280;50639;53.270;7.956;2023-01-27T04:58:41;105502.94;;;4.19;100.00
64298;BME280;50639;53.270;7.956;2023-01-27T05:01:06;105272.13;;;4.00;100.00
64298;BME280;50639;53.270;7.956;2023-01-27T05:03:32;105425.38;;;4.07;100.00
64298;BME280;50639;53.270;7.956;2023-01-27T05:05:57;105212.13;;;3.93;100.00
64298;BME280;50639;53.270;7.956;2023-01-27T05:08:22;105105.28;;;3.82;100.00
64298;BME280;50639;53.270;7.956;2023-01-27T05:10:48;105117.72;;;3.81;100.00
64298;BME280;50639;53.270;7.956;2023-01-27T05:13:13;104950.66;;;3.69;100.00
64298;BME280;50639;53.270;7.956;2023-01-27T05:15:39;104907.56;;;3.63;100.00
64298;BME280;50639;53.270;7.956;2023-01-27T05:18:04;104921.53;;;3.66;100.00
64298;BME280;50639;53.270;7.956;2023-01-27T05:20:30;104955.13;;;3.69;100.00
64298;BME280;50639;53.270;7.956;2023-01-27T05:22:56;104932.63;;;3.74;100.00
64298;BME280;50639;53.270;7.956;2023-01-27T05:25:44;105020.72;;;3.87;100.00
64298;BME280;50639;53.270;7.956;2023-01-27T05:28:10;105040.72;;;3.94;100.00
64298;BME280;50639;53.270;7.956;2023-01-27T05:30:36;104938.75;;;3.92;100.00
64298;BME280;50639;53.270;7.956;2023-01-27T05:33:02;105050.03;;;4.02;100.00
64298;BME280;50639;53.270;7.956;2023-01-27T05:35:30;104966.44;;;4.05;100.00
64298;BME280;50639;53.270;7.956;2023-01-27T05:37:56;104990.94;;;4.11;100.00
64298;BME280;50639;53.270;7.956;2023-01-27T05:40:22;104983.63;;;4.15;100.00
64298;BME280;50639;53.270;7.956;2023-01-27T05:42:50;104834.06;;;4.07;100.00
64298;BME280;50639;53.270;7.956;2023-01-27T05:45:16;105086.97;;;4.26;100.00
64298;BME280;50639;53.270;7.956;2023-01-27T05:47:41;104960.09;;;4.23;100.00
64298;BME280;50639;53.270;7.956;2023-01-27T05:50:07;104972.22;;;4.29;100.00
64298;BME280;50639;53.270;7.956;2023-01-27T05:52:33;105144.66;;;4.42;100.00
64298;BME280;50639;53.270;7.956;2023-01-27T05:54:59;105167.25;;;4.52;100.00
64298;BME280;50639;53.270;7.956;2023-01-27T05:57:24;105236.06;;;4.61;100.00
64298;BME280;50639;53.270;7.956;2023-01-27T05:59:49;105149.19;;;4.57;100.00
64298;BME280;50639;53.270;7.956;2023-01-27T06:02:15;105090.88;;;4.51;100.00
64298;BME280;50639;53.270;7.956;2023-01-27T06:04:40;105252.03;;;4.61;100.00
64298;BME280;50639;53.270;7.956;2023-01-27T06:07:06;105135.25;;;4.52;100.00
64298;BME280;50639;53.270;7.956;2023-01-27T06:09:32;105239.72;;;4.59;100.00
64298;BME280;50639;53.270;7.956;2023-01-27T06:11:57;105309.59;;;4.65;100.00
64298;BME280;50639;53.270;7.956;2023-01-27T06:14:23;105183.94;;;4.56;100.00
64298;BME280;50639;53.270;7.956;2023-01-27T06:16:48;105160.03;;;4.54;100.00
64298;BME280;50639;53.270;7.956;2023-01-27T06:19:14;105349.78;;;4.62;100.00
64298;BME280;50639;53.270;7.956;2023-01-27T06:21:39;105275.59;;;4.53;100.00
64298;BME280;50639;53.270;7.956;2023-01-27T06:24:05;105426.00;;;4.66;100.00
64298;BME280;50639;53.270;7.956;2023-01-27T06:26:30;105468.50;;;4.69;100.00
64298;BME280;50639;53.270;7.956;2023-01-27T06:28:56;105490.53;;;4.73;100.00
64298;BME280;50639;53.270;7.956;2023-01-27T06:31:22;105521.38;;;4.78;100.00
64298;BME280;50639;53.270;7.956;2023-01-27T06:33:48;105432.91;;;4.70;100.00
64298;BME280;50639;53.270;7.956;2023-01-27T06:36:17;105632.16;;;4.85;100.00
64298;BME280;50639;53.270;7.956;2023-01-27T06:38:43;105664.84;;;4.90;100.00
64298;BME280;50639;53.270;7.956;2023-01-27T06:41:09;105545.41;;;4.78;100.00
64298;BME280;50639;53.270;7.956;2023-01-27T06:43:35;105665.13;;;4.84;100.00
64298;BME280;50639;53.270;7.956;2023-01-27T06:46:01;105531.63;;;4.69;100.00
64298;BME280;50639;53.270;7.956;2023-01-27T06:48:27;105355.34;;;4.58;100.00
64298;BME280;50639;53.270;7.956;2023-01-27T06:50:53;105438.59;;;4.46;100.00
64298;BME280;50639;53.270;7.956;2023-01-27T06:53:18;105470.28;;;4.52;100.00
64298;BME280;50639;53.270;7.956;2023-01-27T06:55:44;105352.56;;;4.42;100.00
64298;BME280;50639;53.270;7.956;2023-01-27T06:58:12;105627.91;;;4.63;100.00
64298;BME280;50639;53.270;7.956;2023-01-27T07:00:38;105191.06;;;4.38;100.00
64298;BME280;50639;53.270;7.956;2023-01-27T07:03:05;105234.91;;;4.33;100.00
64298;BME280;50639;53.270;7.956;2023-01-27T07:05:31;105217.91;;;4.35;100.00
64298;BME280;50639;53.270;7.956;2023-01-27T07:07:57;105326.84;;;4.41;100.00
64298;BME280;50639;53.270;7.956;2023-01-27T07:10:23;105154.53;;;4.40;100.00
64298;BME280;50639;53.270;7.956;2023-01-27T07:12:48;105102.53;;;4.33;100.00
64298;BME280;50639;53.270;7.956;2023-01-27T07:15:14;105052.91;;;4.31;100.00
64298;BME280;50639;53.270;7.956;2023-01-27T07:17:39;105046.72;;;4.30;100.00
64298;BME280;50639;53.270;7.956;2023-01-27T07:20:06;105238.59;;;4.47;100.00
64298;BME280;50639;53.270;7.956;2023-01-27T07:22:32;105191.38;;;4.49;100.00
64298;BME280;50639;53.270;7.956;2023-01-27T07:24:57;105106.31;;;4.45;100.00
64298;BME280;50639;53.270;7.956;2023-01-27T07:27:23;105131.97;;;4.47;100.00
64298;BME280;50639;53.270;7.956;2023-01-27T07:29:49;105337.38;;;4.61;100.00
64298;BME280;50639;53.270;7.956;2023-01-27T07:32:15;105292.81;;;4.63;100.00
64298;BME280;50639;53.270;7.956;2023-01-27T07:34:41;105266.34;;;4.60;100.00
64298;BME280;50639;53.270;7.956;2023-01-27T07:37:06;105411.56;;;4.70;100.00
64298;BME280;50639;53.270;7.956;2023-01-27T07:39:32;105374.28;;;4.69;100.00
64298;BME280;50639;53.270;7.956;2023-01-27T07:41:58;105360.13;;;4.68;100.00
64298;BME280;50639;53.270;7.956;2023-01-27T07:44:29;105560.44;;;4.79;100.00
64298;BME280;50639;53.270;7.956;2023-01-27T07:46:57;105616.31;;;4.82;100.00
64298;BME280;50639;53.270;7.956;2023-01-27T07:49:22;105768.88;;;4.90;100.00
64298;BME280;50639;53.270;7.956;2023-01-27T07:51:48;105733.44;;;4.87;100.00
64298;BME280;50639;53.270;7.956;2023-01-27T07:54:13;105786.09;;;4.83;100.00
64298;BME280;50639;53.270;7.956;2023-01-27T07:56:39;105963.63;;;4.90;100.00
64298;BME280;50639;53.270;7.956;2023-01-27T07:59:04;106067.47;;;4.95;100.00
64298;BME280;50639;53.270;7.956;2023-01-27T08:01:30;106180.16;;;5.01;100.00
64298;BME280;50639;53.270;7.956;2023-01-27T08:03:57;106283.66;;;4.93;100.00
64298;BME280;50639;53.270;7.956;2023-01-27T08:06:22;106464.91;;;4.99;100.00
64298;BME280;50639;53.270;7.956;2023-01-27T08:08:48;106635.69;;;4.99;100.00
64298;BME280;50639;53.270;7.956;2023-01-27T08:11:14;106616.31;;;4.94;100.00
64298;BME280;50639;53.270;7.956;2023-01-27T08:13:40;106829.88;;;4.91;100.00
64298;BME280;50639;53.270;7.956;2023-01-27T08:16:08;106755.34;;;4.85;100.00
64298;BME280;50639;53.270;7.956;2023-01-27T08:18:35;107092.97;;;5.00;100.00
64298;BME280;50639;53.270;7.956;2023-01-27T08:21:04;107159.59;;;5.04;100.00
64298;BME280;50639;53.270;7.956;2023-01-27T08:23:31;107289.28;;;5.15;100.00
64298;BME280;50639;53.270;7.956;2023-01-27T08:26:00;107082.09;;;5.07;100.00
64298;BME280;50639;53.270;7.956;2023-01-27T08:28:28;107363.16;;;5.14;100.00
64298;BME280;50639;53.270;7.956;2023-01-27T08:30:54;107280.59;;;5.05;100.00
64298;BME280;50639;53.270;7.956;2023-01-27T08:33:27;107515.34;;;5.14;100.00
64298;BME280;50639;53.270;7.956;2023-01-27T08:35:52;107601.69;;;5.15;100.00
64298;BME280;50639;53.270;7.956;2023-01-27T08:38:18;107610.59;;;5.14;100.00
64298;BME280;50639;53.270;7.956;2023-01-27T08:40:45;107690.66;;;5.17;100.00
64298;BME280;50639;53.270;7.956;2023-01-27T08:43:12;107749.34;;;5.20;100.00
64298;BME280;50639;53.270;7.956;2023-01-27T08:45:41;107672.84;;;5.19;100.00
64298;BME280;50639;53.270;7.956;2023-01-27T08:48:06;107667.59;;;5.13;100.00
64298;BME280;50639;53.270;7.956;2023-01-27T08:50:32;107261.34;;;4.91;100.00
64298;BME280;50639;53.270;7.956;2023-01-27T08:52:58;107521.03;;;4.96;100.00
64298;BME280;50639;53.270;7.956;2023-01-27T08:55:26;107786.84;;;5.14;100.00
64298;BME280;50639;53.270;7.956;2023-01-27T08:57:52;107809.03;;;5.19;100.00
64298;BME280;50639;53.270;7.956;2023-01-27T09:00:17;107897.97;;;5.25;100.00
64298;BME280;50639;53.270;7.956;2023-01-27T09:02:43;107916.63;;;5.27;100.00
64298;BME280;50639;53.270;7.956;2023-01-27T09:05:09;107939.72;;;5.31;100.00
64298;BME280;50639;53.270;7.956;2023-01-27T09:07:34;108062.47;;;5.40;100.00
64298;BME280;50639;53.270;7.956;2023-01-27T09:10:00;108060.69;;;5.43;100.00
64298;BME280;50639;53.270;7.956;2023-01-27T09:12:25;107804.41;;;5.28;100.00
64298;BME280;50639;53.270;7.956;2023-01-27T09:14:50;107872.09;;;5.29;100.00
64298;BME280;50639;53.270;7.956;2023-01-27T09:17:16;107815.16;;;5.24;100.00
64298;BME280;50639;53.270;7.956;2023-01-27T09:19:44;108107.91;;;5.40;100.00
64298;BME280;50639;53.270;7.956;2023-01-27T09:22:10;108022.34;;;5.44;100.00
64298;BME280;50639;53.270;7.956;2023-01-27T09:24:36;108051.66;;;5.52;100.00
64298;BME280;50639;53.270;7.956;2023-01-27T09:27:01;107992.00;;;5.51;100.00
64298;BME280;50639;53.270;7.956;2023-01-27T09:29:27;108027.53;;;5.56;100.00
64298;BME280;50639;53.270;7.956;2023-01-27T09:31:53;107600.38;;;5.37;100.00
64298;BME280;50639;53.270;7.956;2023-01-27T09:34:19;108014.19;;;5.56;100.00
64298;BME280;50639;53.270;7.956;2023-01-27T09:36:50;108117.41;;;5.65;100.00
64298;BME280;50639;53.270;7.956;2023-01-27T09:39:17;107875.22;;;5.56;100.00
64298;BME280;50639;53.270;7.956;2023-01-27T09:41:54;108202.84;;;5.74;100.00
64298;BME280;50639;53.270;7.956;2023-01-27T09:44:50;108244.75;;;5.73;100.00
64298;BME280;50639;53.270;7.956;2023-01-27T10:00:48;108669.81;;;5.75;100.00
64298;BME280;50639;53.270;7.956;2023-01-27T10:03:27;108785.66;;;5.68;100.00
64298;BME280;50639;53.270;7.956;2023-01-27T10:06:24;108758.06;;;5.67;100.00
64298;BME280;50639;53.270;7.956;2023-01-27T10:16:51;109461.31;;;5.76;100.00
64298;BME280;50639;53.270;7.956;2023-01-27T10:19:53;109678.16;;;5.92;100.00
64298;BME280;50639;53.270;7.956;2023-01-27T10:28:20;109791.66;;;6.10;100.00
64298;BME280;50639;53.270;7.956;2023-01-27T10:31:14;109604.25;;;6.03;100.00
64298;BME280;50639;53.270;7.956;2023-01-27T10:33:52;110046.00;;;6.16;100.00
64298;BME280;50639;53.270;7.956;2023-01-27T10:36:44;109771.06;;;6.05;100.00
64298;BME280;50639;53.270;7.956;2023-01-27T10:39:37;110014.63;;;6.06;100.00
64298;BME280;50639;53.270;7.956;2023-01-27T10:48:16;110577.25;;;6.32;100.00
64298;BME280;50639;53.270;7.956;2023-01-27T10:50:49;110470.13;;;6.30;100.00
64298;BME280;50639;53.270;7.956;2023-01-27T10:53:25;109891.44;;;6.02;100.00
64298;BME280;50639;53.270;7.956;2023-01-27T10:56:20;110311.97;;;6.21;100.00
64298;BME280;50639;53.270;7.956;2023-01-27T10:59:19;109299.09;;;5.80;100.00
64298;BME280;50639;53.270;7.956;2023-01-27T11:02:12;109632.69;;;5.90;100.00
64298;BME280;50639;53.270;7.956;2023-01-27T11:04:42;109973.56;;;6.06;100.00
64298;BME280;50639;53.270;7.956;2023-01-27T11:07:19;110184.88;;;6.01;100.00
64298;BME280;50639;53.270;7.956;2023-01-27T11:09:55;110834.88;;;6.20;100.00
64298;BME280;50639;53.270;7.956;2023-01-27T11:12:43;110674.97;;;6.15;100.00
64298;BME280;50639;53.270;7.956;2023-01-27T11:15:23;109723.97;;;5.54;100.00
64298;BME280;50639;53.270;7.956;2023-01-27T11:20:44;110284.25;;;5.79;100.00
64298;BME280;50639;53.270;7.956;2023-01-27T11:23:22;110581.66;;;5.94;100.00
64298;BME280;50639;53.270;7.956;2023-01-27T11:26:42;110272.75;;;5.83;100.00
64298;BME280;50639;53.270;7.956;2023-01-27T11:31:36;110575.50;;;5.98;100.00
64298;BME280;50639;53.270;7.956;2023-01-27T11:37:16;110701.50;;;6.06;100.00
64298;BME280;50639;53.270;7.956;2023-01-27T11:39:42;110613.06;;;6.03;100.00
64298;BME280;50639;53.270;7.956;2023-01-27T11:42:08;110771.13;;;6.07;100.00
64298;BME280;50639;53.270;7.956;2023-01-27T11:44:34;110845.16;;;6.07;100.00
64298;BME280;50639;53.270;7.956;2023-01-27T11:47:01;111096.19;;;6.15;100.00
64298;BME280;50639;53.270;7.956;2023-01-27T11:49:34;111176.66;;;6.20;100.00
64298;BME280;50639;53.270;7.956;2023-01-27T11:52:08;111075.75;;;6.19;100.00
64298;BME280;50639;53.270;7.956;2023-01-27T11:55:06;110852.38;;;6.09;100.00
64298;BME280;50639;53.270;7.956;2023-01-27T11:57:40;110811.41;;;6.12;100.00
64298;BME280;50639;53.270;7.956;2023-01-27T12:00:36;110441.66;;;5.97;100.00
64298;BME280;50639;53.270;7.956;2023-01-27T12:03:18;109670.44;;;5.50;100.00
64298;BME280;50639;53.270;7.956;2023-01-27T12:05:52;110244.97;;;5.78;100.00
64298;BME280;50639;53.270;7.956;2023-01-27T12:08:40;110223.66;;;5.81;100.00
64298;BME280;50639;53.270;7.956;2023-01-27T12:11:21;110485.31;;;5.94;100.00
64298;BME280;50639;53.270;7.956;2023-01-27T12:13:55;110049.78;;;5.81;100.00
64298;BME280;50639;53.270;7.956;2023-01-27T12:16:48;109964.16;;;5.79;100.00
64298;BME280;50639;53.270;7.956;2023-01-27T12:21:49;109341.50;;;5.35;100.00
64298;BME280;50639;53.270;7.956;2023-01-27T12:24:37;109481.47;;;5.44;100.00
64298;BME280;50639;53.270;7.956;2023-01-27T12:27:05;109577.69;;;5.43;100.00
64298;BME280;50639;53.270;7.956;2023-01-27T12:29:46;109438.69;;;5.41;100.00
64298;BME280;50639;53.270;7.956;2023-01-27T12:32:17;109567.06;;;5.49;100.00
64298;BME280;50639;53.270;7.956;2023-01-27T12:34:48;109420.00;;;5.43;100.00
64298;BME280;50639;53.270;7.956;2023-01-27T12:37:21;109182.94;;;5.36;100.00
64298;BME280;50639;53.270;7.956;2023-01-27T12:39:52;108962.00;;;5.26;100.00
64298;BME280;50639;53.270;7.956;2023-01-27T12:43:10;109035.91;;;5.24;100.00
64298;BME280;50639;53.270;7.956;2023-01-27T12:45:33;109393.25;;;5.43;100.00
64298;BME280;50639;53.270;7.956;2023-01-27T12:50:39;109477.19;;;5.60;100.00
64298;BME280;50639;53.270;7.956;2023-01-27T12:53:25;109219.53;;;5.43;100.00
64298;BME280;50639;53.270;7.956;2023-01-27T13:01:05;109111.72;;;5.41;100.00
64298;BME280;50639;53.270;7.956;2023-01-27T13:03:37;109347.94;;;5.55;100.00
64298;BME280;50639;53.270;7.956;2023-01-27T13:06:05;109526.28;;;5.68;100.00
64298;BME280;50639;53.270;7.956;2023-01-27T13:08:32;109541.47;;;5.72;100.00
64298;BME280;50639;53.270;7.956;2023-01-27T13:10:59;109630.75;;;5.80;100.00
64298;BME280;50639;53.270;7.956;2023-01-27T13:13:28;109621.91;;;5.84;100.00
64298;BME280;50639;53.270;7.956;2023-01-27T13:18:34;108976.34;;;5.52;100.00
64298;BME280;50639;53.270;7.956;2023-01-27T13:21:15;109284.75;;;5.67;100.00
64298;BME280;50639;53.270;7.956;2023-01-27T13:23:42;108936.28;;;5.53;100.00
64298;BME280;50639;53.270;7.956;2023-01-27T13:26:12;109190.25;;;5.64;100.00
64298;BME280;50639;53.270;7.956;2023-01-27T13:33:54;109221.41;;;5.62;100.00
64298;BME280;50639;53.270;7.956;2023-01-27T13:36:36;109370.28;;;5.66;100.00
64298;BME280;50639;53.270;7.956;2023-01-27T13:44:19;109282.00;;;5.57;100.00
64298;BME280;50639;53.270;7.956;2023-01-27T13:46:46;109211.59;;;5.55;100.00
64298;BME280;50639;53.270;7.956;2023-01-27T13:49:36;109249.91;;;5.55;100.00
64298;BME280;50639;53.270;7.956;2023-01-27T13:52:05;109539.63;;;5.66;100.00
64298;BME280;50639;53.270;7.956;2023-01-27T13:54:31;109607.41;;;5.70;100.00
64298;BME280;50639;53.270;7.956;2023-01-27T13:59:39;109539.69;;;5.71;100.00
64298;BME280;50639;53.270;7.956;2023-01-27T14:11:07;109352.47;;;5.65;100.00
64298;BME280;50639;53.270;7.956;2023-01-27T14:13:51;109411.28;;;5.68;100.00
64298;BME280;50639;53.270;7.956;2023-01-27T14:16:28;109385.47;;;5.68;100.00
64298;BME280;50639;53.270;7.956;2023-01-27T14:22:08;109116.25;;;5.58;100.00
64298;BME280;50639;53.270;7.956;2023-01-27T14:24:46;109396.16;;;5.68;100.00
64298;BME280;50639;53.270;7.956;2023-01-27T14:27:26;109183.09;;;5.60;100.00
64298;BME280;50639;53.270;7.956;2023-01-27T14:30:00;109326.59;;;5.62;100.00
64298;BME280;50639;53.270;7.956;2023-01-27T14:33:00;109371.19;;;5.65;100.00
64298;BME280;50639;53.270;7.956;2023-01-27T14:40:38;109397.91;;;5.63;100.00
64298;BME280;50639;53.270;7.956;2023-01-27T14:45:39;109405.03;;;5.66;100.00